sensor_id;sensor_type;location;lat;lon;timestamp;P1;durP1;ratioP1;P2;durP2;ratioP2
25824;SDS011;13658;44.534;18.694;2023-03-19T00:01:45;138.85;;;64.60;;
25824;SDS011;13658;44.534;18.694;2023-03-19T00:04:11;124.82;;;60.75;;
25824;SDS011;13658;44.534;18.694;2023-03-19T00:06:37;119.90;;;55.03;;
25824;SDS011;13658;44.534;18.694;2023-03-19T00:09:03;99.55;;;48.30;;
25824;SDS011;13658;44.534;18.694;2023-03-19T00:11:29;106.80;;;51.50;;
25824;SDS011;13658;44.534;18.694;2023-03-19T00:13:56;116.35;;;53.90;;
25824;SDS011;13658;44.534;18.694;2023-03-19T00:16:22;111.45;;;52.58;;
25824;SDS011;13658;44.534;18.694;2023-03-19T00:18:48;108.63;;;50.28;;
25824;SDS011;13658;44.534;18.694;2023-03-19T00:21:14;110.75;;;51.17;;
25824;SDS011;13658;44.534;18.694;2023-03-19T00:23:40;105.70;;;49.40;;
25824;SDS011;13658;44.534;18.694;2023-03-19T00:26:06;105.40;;;52.15;;
25824;SDS011;13658;44.534;18.694;2023-03-19T00:28:32;101.90;;;49.47;;
25824;SDS011;13658;44.534;18.694;2023-03-19T00:31:05;103.47;;;49.13;;
25824;SDS011;13658;44.534;18.694;2023-03-19T00:33:32;103.40;;;50.08;;
25824;SDS011;13658;44.534;18.694;2023-03-19T00:35:59;98.75;;;49.13;;
25824;SDS011;13658;44.534;18.694;2023-03-19T00:38:25;108.60;;;50.83;;
25824;SDS011;13658;44.534;18.694;2023-03-19T00:40:50;107.13;;;50.13;;
25824;SDS011;13658;44.534;18.694;2023-03-19T00:43:17;98.63;;;49.53;;
25824;SDS011;13658;44.534;18.694;2023-03-19T00:45:43;99.15;;;48.00;;
25824;SDS011;13658;44.534;18.694;2023-03-19T00:48:09;102.30;;;48.53;;
25824;SDS011;13658;44.534;18.694;2023-03-19T00:50:35;102.65;;;50.25;;
25824;SDS011;13658;44.534;18.694;2023-03-19T00:53:01;98.55;;;49.67;;
25824;SDS011;13658;44.534;18.694;2023-03-19T00:55:27;110.07;;;51.80;;
25824;SDS011;13658;44.534;18.694;2023-03-19T00:57:52;104.18;;;49.95;;
25824;SDS011;13658;44.534;18.694;2023-03-19T01:00:18;106.15;;;49.60;;
25824;SDS011;13658;44.534;18.694;2023-03-19T01:02:45;110.20;;;52.53;;
25824;SDS011;13658;44.534;18.694;2023-03-19T01:05:11;124.18;;;55.45;;
25824;SDS011;13658;44.534;18.694;2023-03-19T01:07:37;116.40;;;56.95;;
25824;SDS011;13658;44.534;18.694;2023-03-19T01:10:03;120.15;;;57.20;;
25824;SDS011;13658;44.534;18.694;2023-03-19T01:12:30;128.52;;;58.25;;
25824;SDS011;13658;44.534;18.694;2023-03-19T01:14:56;125.97;;;57.97;;
25824;SDS011;13658;44.534;18.694;2023-03-19T01:17:22;115.78;;;52.67;;
25824;SDS011;13658;44.534;18.694;2023-03-19T01:19:48;101.20;;;48.25;;
25824;SDS011;13658;44.534;18.694;2023-03-19T01:22:14;103.47;;;47.50;;
25824;SDS011;13658;44.534;18.694;2023-03-19T01:24:46;93.45;;;44.65;;
25824;SDS011;13658;44.534;18.694;2023-03-19T01:27:13;90.15;;;43.53;;
25824;SDS011;13658;44.534;18.694;2023-03-19T01:29:39;100.85;;;46.42;;
25824;SDS011;13658;44.534;18.694;2023-03-19T01:32:16;94.70;;;46.15;;
25824;SDS011;13658;44.534;18.694;2023-03-19T01:34:59;99.72;;;47.58;;
25824;SDS011;13658;44.534;18.694;2023-03-19T01:37:26;93.05;;;46.00;;
25824;SDS011;13658;44.534;18.694;2023-03-19T01:39:52;87.35;;;41.90;;
25824;SDS011;13658;44.534;18.694;2023-03-19T01:42:18;80.53;;;39.05;;
25824;SDS011;13658;44.534;18.694;2023-03-19T01:44:54;92.78;;;44.63;;
25824;SDS011;13658;44.534;18.694;2023-03-19T01:47:33;69.82;;;33.72;;
25824;SDS011;13658;44.534;18.694;2023-03-19T01:50:24;95.78;;;45.58;;
25824;SDS011;13658;44.534;18.694;2023-03-19T01:53:44;60.22;;;28.98;;
25824;SDS011;13658;44.534;18.694;2023-03-19T02:02:12;68.55;;;34.78;;
25824;SDS011;13658;44.534;18.694;2023-03-19T02:04:57;69.20;;;33.88;;
25824;SDS011;13658;44.534;18.694;2023-03-19T02:07:29;60.95;;;30.70;;
25824;SDS011;13658;44.534;18.694;2023-03-19T02:09:57;60.78;;;29.13;;
25824;SDS011;13658;44.534;18.694;2023-03-19T02:12:24;64.15;;;33.88;;
25824;SDS011;13658;44.534;18.694;2023-03-19T02:14:50;67.55;;;35.88;;
25824;SDS011;13658;44.534;18.694;2023-03-19T02:17:17;66.80;;;31.90;;
25824;SDS011;13658;44.534;18.694;2023-03-19T02:22:20;52.03;;;28.48;;
25824;SDS011;13658;44.534;18.694;2023-03-19T02:24:55;61.85;;;31.13;;
25824;SDS011;13658;44.534;18.694;2023-03-19T02:27:30;60.67;;;30.35;;
25824;SDS011;13658;44.534;18.694;2023-03-19T02:29:55;60.03;;;29.67;;
25824;SDS011;13658;44.534;18.694;2023-03-19T02:32:22;51.50;;;27.65;;
25824;SDS011;13658;44.534;18.694;2023-03-19T02:34:48;55.30;;;28.17;;
25824;SDS011;13658;44.534;18.694;2023-03-19T02:39:48;56.00;;;28.23;;
25824;SDS011;13658;44.534;18.694;2023-03-19T02:42:24;53.47;;;28.20;;
25824;SDS011;13658;44.534;18.694;2023-03-19T02:44:55;55.58;;;29.13;;
25824;SDS011;13658;44.534;18.694;2023-03-19T02:47:22;58.25;;;29.38;;
25824;SDS011;13658;44.534;18.694;2023-03-19T02:49:49;51.05;;;28.00;;
25824;SDS011;13658;44.534;18.694;2023-03-19T02:52:15;54.28;;;28.80;;
25824;SDS011;13658;44.534;18.694;2023-03-19T02:54:42;54.15;;;29.05;;
25824;SDS011;13658;44.534;18.694;2023-03-19T02:57:07;53.30;;;28.70;;
25824;SDS011;13658;44.534;18.694;2023-03-19T02:59:33;57.67;;;29.15;;
25824;SDS011;13658;44.534;18.694;2023-03-19T03:02:00;55.28;;;28.90;;
25824;SDS011;13658;44.534;18.694;2023-03-19T03:04:26;52.55;;;28.38;;
25824;SDS011;13658;44.534;18.694;2023-03-19T03:06:53;50.20;;;28.13;;
25824;SDS011;13658;44.534;18.694;2023-03-19T03:09:19;59.97;;;30.45;;
25824;SDS011;13658;44.534;18.694;2023-03-19T03:11:46;56.47;;;28.65;;
25824;SDS011;13658;44.534;18.694;2023-03-19T03:14:12;62.50;;;28.77;;
25824;SDS011;13658;44.534;18.694;2023-03-19T03:16:39;61.63;;;31.10;;
25824;SDS011;13658;44.534;18.694;2023-03-19T03:19:05;59.08;;;29.67;;
25824;SDS011;13658;44.534;18.694;2023-03-19T03:21:31;64.20;;;32.97;;
25824;SDS011;13658;44.534;18.694;2023-03-19T03:23:58;61.75;;;32.10;;
25824;SDS011;13658;44.534;18.694;2023-03-19T03:26:24;56.15;;;26.42;;
25824;SDS011;13658;44.534;18.694;2023-03-19T03:28:51;68.32;;;33.45;;
25824;SDS011;13658;44.534;18.694;2023-03-19T03:31:17;65.82;;;34.47;;
25824;SDS011;13658;44.534;18.694;2023-03-19T03:33:43;65.53;;;34.65;;
25824;SDS011;13658;44.534;18.694;2023-03-19T03:36:10;67.30;;;33.35;;
25824;SDS011;13658;44.534;18.694;2023-03-19T03:38:37;67.82;;;34.42;;
25824;SDS011;13658;44.534;18.694;2023-03-19T03:41:04;60.22;;;32.63;;
25824;SDS011;13658;44.534;18.694;2023-03-19T03:43:31;58.85;;;30.90;;
25824;SDS011;13658;44.534;18.694;2023-03-19T03:45:58;56.40;;;29.65;;
25824;SDS011;13658;44.534;18.694;2023-03-19T03:48:24;57.63;;;30.83;;
25824;SDS011;13658;44.534;18.694;2023-03-19T03:50:50;60.05;;;32.15;;
25824;SDS011;13658;44.534;18.694;2023-03-19T03:53:21;58.35;;;31.73;;
25824;SDS011;13658;44.534;18.694;2023-03-19T03:55:47;65.07;;;32.50;;
25824;SDS011;13658;44.534;18.694;2023-03-19T03:58:18;64.38;;;32.13;;
25824;SDS011;13658;44.534;18.694;2023-03-19T04:00:44;66.43;;;33.70;;
25824;SDS011;13658;44.534;18.694;2023-03-19T04:03:11;64.10;;;33.10;;
25824;SDS011;13658;44.534;18.694;2023-03-19T04:05:38;67.78;;;34.28;;
25824;SDS011;13658;44.534;18.694;2023-03-19T04:08:05;63.25;;;32.95;;
25824;SDS011;13658;44.534;18.694;2023-03-19T04:10:32;60.70;;;31.85;;
25824;SDS011;13658;44.534;18.694;2023-03-19T04:13:00;65.65;;;33.28;;
25824;SDS011;13658;44.534;18.694;2023-03-19T04:15:29;54.30;;;30.20;;
25824;SDS011;13658;44.534;18.694;2023-03-19T04:17:56;53.83;;;29.15;;
25824;SDS011;13658;44.534;18.694;2023-03-19T04:20:22;53.35;;;28.55;;
25824;SDS011;13658;44.534;18.694;2023-03-19T04:22:50;52.28;;;26.77;;
25824;SDS011;13658;44.534;18.694;2023-03-19T04:25:16;52.92;;;26.55;;
25824;SDS011;13658;44.534;18.694;2023-03-19T04:27:43;44.13;;;23.83;;
25824;SDS011;13658;44.534;18.694;2023-03-19T04:30:10;45.33;;;22.33;;
25824;SDS011;13658;44.534;18.694;2023-03-19T04:32:37;38.55;;;21.60;;
25824;SDS011;13658;44.534;18.694;2023-03-19T04:35:03;41.13;;;21.52;;
25824;SDS011;13658;44.534;18.694;2023-03-19T04:37:30;41.75;;;21.55;;
25824;SDS011;13658;44.534;18.694;2023-03-19T04:39:56;40.25;;;22.48;;
25824;SDS011;13658;44.534;18.694;2023-03-19T04:42:22;47.22;;;24.77;;
25824;SDS011;13658;44.534;18.694;2023-03-19T04:44:59;41.45;;;23.52;;
25824;SDS011;13658;44.534;18.694;2023-03-19T04:47:26;47.78;;;25.70;;
25824;SDS011;13658;44.534;18.694;2023-03-19T04:49:56;48.80;;;24.98;;
25824;SDS011;13658;44.534;18.694;2023-03-19T04:52:24;45.10;;;25.55;;
25824;SDS011;13658;44.534;18.694;2023-03-19T04:54:50;34.42;;;20.65;;
25824;SDS011;13658;44.534;18.694;2023-03-19T04:57:16;39.47;;;21.63;;
25824;SDS011;13658;44.534;18.694;2023-03-19T04:59:45;35.85;;;19.50;;
25824;SDS011;13658;44.534;18.694;2023-03-19T05:02:13;57.58;;;27.15;;
25824;SDS011;13658;44.534;18.694;2023-03-19T05:04:41;56.72;;;26.20;;
25824;SDS011;13658;44.534;18.694;2023-03-19T05:07:10;47.70;;;25.85;;
25824;SDS011;13658;44.534;18.694;2023-03-19T05:09:37;48.20;;;25.00;;
25824;SDS011;13658;44.534;18.694;2023-03-19T05:12:03;45.92;;;25.73;;
25824;SDS011;13658;44.534;18.694;2023-03-19T05:14:35;47.72;;;23.33;;
25824;SDS011;13658;44.534;18.694;2023-03-19T05:17:22;45.78;;;22.67;;
25824;SDS011;13658;44.534;18.694;2023-03-19T05:20:12;46.30;;;21.30;;
25824;SDS011;13658;44.534;18.694;2023-03-19T05:22:46;39.85;;;21.02;;
25824;SDS011;13658;44.534;18.694;2023-03-19T05:25:14;45.40;;;23.75;;
25824;SDS011;13658;44.534;18.694;2023-03-19T05:27:42;41.75;;;22.83;;
25824;SDS011;13658;44.534;18.694;2023-03-19T05:30:14;43.45;;;22.67;;
25824;SDS011;13658;44.534;18.694;2023-03-19T05:33:04;43.08;;;21.63;;
25824;SDS011;13658;44.534;18.694;2023-03-19T05:35:38;44.58;;;22.20;;
25824;SDS011;13658;44.534;18.694;2023-03-19T05:38:13;48.47;;;25.90;;
25824;SDS011;13658;44.534;18.694;2023-03-19T05:40:43;46.95;;;24.65;;
25824;SDS011;13658;44.534;18.694;2023-03-19T05:43:32;41.40;;;24.45;;
25824;SDS011;13658;44.534;18.694;2023-03-19T05:46:02;47.15;;;25.65;;
25824;SDS011;13658;44.534;18.694;2023-03-19T05:48:31;48.03;;;26.20;;
25824;SDS011;13658;44.534;18.694;2023-03-19T05:50:58;48.22;;;25.63;;
25824;SDS011;13658;44.534;18.694;2023-03-19T05:53:30;51.03;;;25.95;;
25824;SDS011;13658;44.534;18.694;2023-03-19T05:56:22;42.70;;;24.58;;
25824;SDS011;13658;44.534;18.694;2023-03-19T05:59:07;42.70;;;26.15;;
25824;SDS011;13658;44.534;18.694;2023-03-19T06:01:37;40.80;;;24.80;;
25824;SDS011;13658;44.534;18.694;2023-03-19T06:04:03;42.50;;;25.20;;
25824;SDS011;13658;44.534;18.694;2023-03-19T06:06:29;43.70;;;25.75;;
25824;SDS011;13658;44.534;18.694;2023-03-19T06:08:56;53.28;;;30.35;;
25824;SDS011;13658;44.534;18.694;2023-03-19T06:11:27;48.92;;;29.92;;
25824;SDS011;13658;44.534;18.694;2023-03-19T06:14:14;53.63;;;29.77;;
25824;SDS011;13658;44.534;18.694;2023-03-19T06:16:46;51.38;;;30.08;;
25824;SDS011;13658;44.534;18.694;2023-03-19T06:19:13;42.67;;;27.13;;
25824;SDS011;13658;44.534;18.694;2023-03-19T06:21:39;49.05;;;30.77;;
25824;SDS011;13658;44.534;18.694;2023-03-19T06:24:06;46.78;;;30.13;;
25824;SDS011;13658;44.534;18.694;2023-03-19T06:26:34;48.70;;;31.40;;
25824;SDS011;13658;44.534;18.694;2023-03-19T06:29:08;49.03;;;31.38;;
25824;SDS011;13658;44.534;18.694;2023-03-19T06:31:36;43.80;;;28.67;;
25824;SDS011;13658;44.534;18.694;2023-03-19T06:34:13;42.45;;;28.15;;
25824;SDS011;13658;44.534;18.694;2023-03-19T06:36:41;46.75;;;31.08;;
25824;SDS011;13658;44.534;18.694;2023-03-19T06:39:09;46.50;;;30.23;;
25824;SDS011;13658;44.534;18.694;2023-03-19T06:41:35;39.58;;;27.83;;
25824;SDS011;13658;44.534;18.694;2023-03-19T06:44:12;45.00;;;27.98;;
25824;SDS011;13658;44.534;18.694;2023-03-19T06:46:38;41.75;;;28.67;;
25824;SDS011;13658;44.534;18.694;2023-03-19T06:49:05;37.40;;;25.33;;
25824;SDS011;13658;44.534;18.694;2023-03-19T06:51:31;38.83;;;27.13;;
25824;SDS011;13658;44.534;18.694;2023-03-19T06:53:57;35.22;;;26.02;;
25824;SDS011;13658;44.534;18.694;2023-03-19T06:56:23;38.78;;;24.55;;
25824;SDS011;13658;44.534;18.694;2023-03-19T06:58:50;36.67;;;24.77;;
25824;SDS011;13658;44.534;18.694;2023-03-19T07:01:16;38.08;;;25.77;;
25824;SDS011;13658;44.534;18.694;2023-03-19T07:03:43;34.17;;;24.98;;
25824;SDS011;13658;44.534;18.694;2023-03-19T07:06:09;36.88;;;25.48;;
25824;SDS011;13658;44.534;18.694;2023-03-19T07:08:36;33.28;;;24.05;;
25824;SDS011;13658;44.534;18.694;2023-03-19T07:11:03;38.53;;;27.73;;
25824;SDS011;13658;44.534;18.694;2023-03-19T07:13:32;39.85;;;27.77;;
25824;SDS011;13658;44.534;18.694;2023-03-19T07:15:58;39.40;;;28.80;;
25824;SDS011;13658;44.534;18.694;2023-03-19T07:18:26;37.33;;;28.13;;
25824;SDS011;13658;44.534;18.694;2023-03-19T07:20:52;43.38;;;31.02;;
25824;SDS011;13658;44.534;18.694;2023-03-19T07:23:19;41.78;;;28.08;;
25824;SDS011;13658;44.534;18.694;2023-03-19T07:25:55;40.28;;;28.50;;
25824;SDS011;13658;44.534;18.694;2023-03-19T07:28:21;36.10;;;25.38;;
25824;SDS011;13658;44.534;18.694;2023-03-19T07:30:49;34.10;;;24.77;;
25824;SDS011;13658;44.534;18.694;2023-03-19T07:33:18;33.78;;;25.42;;
25824;SDS011;13658;44.534;18.694;2023-03-19T07:35:46;34.17;;;24.38;;
25824;SDS011;13658;44.534;18.694;2023-03-19T07:38:15;29.52;;;23.00;;
25824;SDS011;13658;44.534;18.694;2023-03-19T07:40:41;25.35;;;19.98;;
25824;SDS011;13658;44.534;18.694;2023-03-19T07:43:08;24.88;;;19.20;;
25824;SDS011;13658;44.534;18.694;2023-03-19T07:45:34;22.77;;;17.33;;
25824;SDS011;13658;44.534;18.694;2023-03-19T07:48:00;18.90;;;15.70;;
25824;SDS011;13658;44.534;18.694;2023-03-19T07:50:30;18.73;;;15.18;;
25824;SDS011;13658;44.534;18.694;2023-03-19T07:52:56;20.25;;;14.80;;
25824;SDS011;13658;44.534;18.694;2023-03-19T07:55:23;17.42;;;14.90;;
25824;SDS011;13658;44.534;18.694;2023-03-19T07:57:49;15.70;;;13.07;;
25824;SDS011;13658;44.534;18.694;2023-03-19T08:00:15;13.43;;;11.52;;
25824;SDS011;13658;44.534;18.694;2023-03-19T08:02:43;12.90;;;11.25;;
25824;SDS011;13658;44.534;18.694;2023-03-19T08:05:09;12.90;;;10.70;;
25824;SDS011;13658;44.534;18.694;2023-03-19T08:07:36;15.10;;;11.10;;
25824;SDS011;13658;44.534;18.694;2023-03-19T08:10:05;13.40;;;10.30;;
25824;SDS011;13658;44.534;18.694;2023-03-19T08:12:33;14.73;;;10.38;;
25824;SDS011;13658;44.534;18.694;2023-03-19T08:15:05;12.95;;;10.45;;
25824;SDS011;13658;44.534;18.694;2023-03-19T08:17:32;12.95;;;10.02;;
25824;SDS011;13658;44.534;18.694;2023-03-19T08:20:06;20.38;;;14.27;;
25824;SDS011;13658;44.534;18.694;2023-03-19T08:22:35;21.08;;;15.65;;
25824;SDS011;13658;44.534;18.694;2023-03-19T08:25:02;17.25;;;13.20;;
25824;SDS011;13658;44.534;18.694;2023-03-19T08:27:29;18.73;;;14.13;;
25824;SDS011;13658;44.534;18.694;2023-03-19T08:29:56;22.08;;;17.48;;
25824;SDS011;13658;44.534;18.694;2023-03-19T08:32:23;24.67;;;17.17;;
25824;SDS011;13658;44.534;18.694;2023-03-19T08:34:49;20.08;;;16.15;;
25824;SDS011;13658;44.534;18.694;2023-03-19T08:37:15;24.83;;;20.63;;
25824;SDS011;13658;44.534;18.694;2023-03-19T08:39:41;27.67;;;23.73;;
25824;SDS011;13658;44.534;18.694;2023-03-19T08:42:07;29.83;;;22.77;;
25824;SDS011;13658;44.534;18.694;2023-03-19T08:44:34;33.53;;;26.38;;
25824;SDS011;13658;44.534;18.694;2023-03-19T08:47:00;30.90;;;25.88;;
25824;SDS011;13658;44.534;18.694;2023-03-19T08:49:26;36.45;;;29.02;;
25824;SDS011;13658;44.534;18.694;2023-03-19T08:51:52;29.38;;;23.30;;
25824;SDS011;13658;44.534;18.694;2023-03-19T08:54:18;24.42;;;20.77;;
25824;SDS011;13658;44.534;18.694;2023-03-19T08:56:44;21.20;;;18.10;;
25824;SDS011;13658;44.534;18.694;2023-03-19T08:59:10;22.33;;;19.55;;
25824;SDS011;13658;44.534;18.694;2023-03-19T09:01:36;19.23;;;17.02;;
25824;SDS011;13658;44.534;18.694;2023-03-19T09:04:02;18.15;;;16.25;;
25824;SDS011;13658;44.534;18.694;2023-03-19T09:06:28;22.75;;;18.65;;
25824;SDS011;13658;44.534;18.694;2023-03-19T09:08:54;29.10;;;24.52;;
25824;SDS011;13658;44.534;18.694;2023-03-19T09:11:20;26.20;;;20.27;;
25824;SDS011;13658;44.534;18.694;2023-03-19T09:13:47;23.45;;;19.08;;
25824;SDS011;13658;44.534;18.694;2023-03-19T09:16:14;21.52;;;19.08;;
25824;SDS011;13658;44.534;18.694;2023-03-19T09:18:40;28.02;;;24.42;;
25824;SDS011;13658;44.534;18.694;2023-03-19T09:21:06;24.17;;;19.85;;
25824;SDS011;13658;44.534;18.694;2023-03-19T09:23:32;23.27;;;20.77;;
25824;SDS011;13658;44.534;18.694;2023-03-19T09:25:58;15.10;;;13.50;;
25824;SDS011;13658;44.534;18.694;2023-03-19T09:28:24;12.75;;;11.45;;
25824;SDS011;13658;44.534;18.694;2023-03-19T09:30:51;13.80;;;11.07;;
25824;SDS011;13658;44.534;18.694;2023-03-19T09:33:17;11.43;;;10.13;;
25824;SDS011;13658;44.534;18.694;2023-03-19T09:35:51;12.20;;;10.90;;
25824;SDS011;13658;44.534;18.694;2023-03-19T09:38:18;14.35;;;12.77;;
25824;SDS011;13658;44.534;18.694;2023-03-19T09:40:51;17.98;;;13.63;;
25824;SDS011;13658;44.534;18.694;2023-03-19T09:46:18;15.68;;;13.98;;
25824;SDS011;13658;44.534;18.694;2023-03-19T09:48:53;15.80;;;14.18;;
25824;SDS011;13658;44.534;18.694;2023-03-19T09:51:46;16.05;;;14.25;;
25824;SDS011;13658;44.534;18.694;2023-03-19T09:54:21;18.25;;;14.98;;
25824;SDS011;13658;44.534;18.694;2023-03-19T09:57:08;19.08;;;15.18;;
25824;SDS011;13658;44.534;18.694;2023-03-19T09:59:35;16.58;;;14.77;;
25824;SDS011;13658;44.534;18.694;2023-03-19T10:05:09;22.60;;;15.98;;
25824;SDS011;13658;44.534;18.694;2023-03-19T10:13:27;14.85;;;12.93;;
25824;SDS011;13658;44.534;18.694;2023-03-19T10:16:10;16.25;;;13.75;;
25824;SDS011;13658;44.534;18.694;2023-03-19T10:18:41;20.42;;;14.82;;
25824;SDS011;13658;44.534;18.694;2023-03-19T10:26:37;15.40;;;12.10;;
25824;SDS011;13658;44.534;18.694;2023-03-19T10:29:07;14.98;;;11.38;;
25824;SDS011;13658;44.534;18.694;2023-03-19T10:37:14;13.27;;;9.85;;
25824;SDS011;13658;44.534;18.694;2023-03-19T10:39:42;13.05;;;10.25;;
25824;SDS011;13658;44.534;18.694;2023-03-19T10:44:46;17.77;;;13.52;;
25824;SDS011;13658;44.534;18.694;2023-03-19T10:47:38;13.18;;;10.75;;
25824;SDS011;13658;44.534;18.694;2023-03-19T10:50:06;13.93;;;10.82;;
25824;SDS011;13658;44.534;18.694;2023-03-19T10:52:39;15.63;;;11.35;;
25824;SDS011;13658;44.534;18.694;2023-03-19T10:55:15;9.95;;;8.27;;
25824;SDS011;13658;44.534;18.694;2023-03-19T10:57:44;12.68;;;10.18;;
25824;SDS011;13658;44.534;18.694;2023-03-19T11:02:47;12.15;;;10.10;;
25824;SDS011;13658;44.534;18.694;2023-03-19T11:05:26;13.18;;;10.65;;
25824;SDS011;13658;44.534;18.694;2023-03-19T11:07:54;16.52;;;11.45;;
25824;SDS011;13658;44.534;18.694;2023-03-19T11:10:20;10.00;;;8.30;;
25824;SDS011;13658;44.534;18.694;2023-03-19T11:12:53;10.75;;;8.30;;
25824;SDS011;13658;44.534;18.694;2023-03-19T11:15:23;17.85;;;10.07;;
25824;SDS011;13658;44.534;18.694;2023-03-19T11:17:58;12.20;;;8.80;;
25824;SDS011;13658;44.534;18.694;2023-03-19T11:23:00;13.10;;;8.23;;
25824;SDS011;13658;44.534;18.694;2023-03-19T11:25:39;10.13;;;8.30;;
25824;SDS011;13658;44.534;18.694;2023-03-19T11:28:14;11.43;;;7.55;;
25824;SDS011;13658;44.534;18.694;2023-03-19T11:36:10;11.85;;;8.27;;
25824;SDS011;13658;44.534;18.694;2023-03-19T11:50:12;8.63;;;5.90;;
25824;SDS011;13658;44.534;18.694;2023-03-19T11:55:43;7.80;;;5.60;;
25824;SDS011;13658;44.534;18.694;2023-03-19T12:07:25;9.38;;;6.25;;
25824;SDS011;13658;44.534;18.694;2023-03-19T12:18:38;8.45;;;5.70;;
25824;SDS011;13658;44.534;18.694;2023-03-19T12:35:28;7.90;;;5.50;;
25824;SDS011;13658;44.534;18.694;2023-03-19T12:40:34;7.88;;;5.00;;
25824;SDS011;13658;44.534;18.694;2023-03-19T12:43:14;10.73;;;5.40;;
25824;SDS011;13658;44.534;18.694;2023-03-19T12:51:47;9.18;;;5.93;;
25824;SDS011;13658;44.534;18.694;2023-03-19T12:54:25;8.35;;;5.20;;
25824;SDS011;13658;44.534;18.694;2023-03-19T13:00:02;12.75;;;6.70;;
25824;SDS011;13658;44.534;18.694;2023-03-19T13:03:18;8.32;;;4.90;;
25824;SDS011;13658;44.534;18.694;2023-03-19T13:05:43;8.90;;;5.55;;
25824;SDS011;13658;44.534;18.694;2023-03-19T13:10:53;9.65;;;5.70;;
25824;SDS011;13658;44.534;18.694;2023-03-19T13:13:34;8.50;;;5.63;;
25824;SDS011;13658;44.534;18.694;2023-03-19T13:21:22;9.00;;;5.35;;
25824;SDS011;13658;44.534;18.694;2023-03-19T13:26:45;7.68;;;5.70;;
25824;SDS011;13658;44.534;18.694;2023-03-19T13:29:21;10.07;;;6.15;;
25824;SDS011;13658;44.534;18.694;2023-03-19T13:31:49;7.93;;;5.22;;
25824;SDS011;13658;44.534;18.694;2023-03-19T13:36:54;8.32;;;5.40;;
25824;SDS011;13658;44.534;18.694;2023-03-19T13:39:26;8.73;;;5.85;;
25824;SDS011;13658;44.534;18.694;2023-03-19T13:42:21;8.32;;;6.10;;
25824;SDS011;13658;44.534;18.694;2023-03-19T13:48:21;10.25;;;6.25;;
25824;SDS011;13658;44.534;18.694;2023-03-19T13:55:58;8.13;;;5.20;;
25824;SDS011;13658;44.534;18.694;2023-03-19T13:58:28;9.20;;;5.90;;
25824;SDS011;13658;44.534;18.694;2023-03-19T14:06:46;12.02;;;8.18;;
25824;SDS011;13658;44.534;18.694;2023-03-19T14:14:46;9.77;;;6.93;;
25824;SDS011;13658;44.534;18.694;2023-03-19T14:17:37;14.18;;;8.23;;
25824;SDS011;13658;44.534;18.694;2023-03-19T14:22:38;11.85;;;7.95;;
25824;SDS011;13658;44.534;18.694;2023-03-19T14:25:18;10.68;;;6.18;;
25824;SDS011;13658;44.534;18.694;2023-03-19T14:28:08;10.27;;;6.70;;
25824;SDS011;13658;44.534;18.694;2023-03-19T14:30:44;12.02;;;6.68;;
25824;SDS011;13658;44.534;18.694;2023-03-19T14:33:38;9.45;;;6.18;;
25824;SDS011;13658;44.534;18.694;2023-03-19T14:36:11;10.00;;;6.18;;
25824;SDS011;13658;44.534;18.694;2023-03-19T14:41:48;12.77;;;7.20;;
25824;SDS011;13658;44.534;18.694;2023-03-19T14:44:46;13.10;;;7.55;;
25824;SDS011;13658;44.534;18.694;2023-03-19T14:50:26;11.60;;;7.13;;
25824;SDS011;13658;44.534;18.694;2023-03-19T14:56:10;11.73;;;8.20;;
25824;SDS011;13658;44.534;18.694;2023-03-19T14:58:50;10.82;;;7.90;;
25824;SDS011;13658;44.534;18.694;2023-03-19T15:01:18;12.63;;;8.55;;
25824;SDS011;13658;44.534;18.694;2023-03-19T15:03:50;10.18;;;7.80;;
25824;SDS011;13658;44.534;18.694;2023-03-19T15:06:21;14.85;;;8.82;;
25824;SDS011;13658;44.534;18.694;2023-03-19T15:08:47;11.40;;;8.00;;
25824;SDS011;13658;44.534;18.694;2023-03-19T15:17:20;21.25;;;16.15;;
25824;SDS011;13658;44.534;18.694;2023-03-19T15:19:50;20.80;;;13.02;;
25824;SDS011;13658;44.534;18.694;2023-03-19T15:27:38;16.10;;;12.23;;
25824;SDS011;13658;44.534;18.694;2023-03-19T15:30:25;19.88;;;13.77;;
25824;SDS011;13658;44.534;18.694;2023-03-19T15:32:52;18.65;;;13.20;;
25824;SDS011;13658;44.534;18.694;2023-03-19T15:35:20;37.85;;;22.60;;
25824;SDS011;13658;44.534;18.694;2023-03-19T15:37:49;19.77;;;12.00;;
25824;SDS011;13658;44.534;18.694;2023-03-19T15:40:19;78.35;;;47.13;;
25824;SDS011;13658;44.534;18.694;2023-03-19T15:42:47;27.55;;;18.27;;
25824;SDS011;13658;44.534;18.694;2023-03-19T15:45:17;27.15;;;15.68;;
25824;SDS011;13658;44.534;18.694;2023-03-19T15:47:51;23.48;;;16.10;;
25824;SDS011;13658;44.534;18.694;2023-03-19T15:50:25;28.77;;;18.88;;
25824;SDS011;13658;44.534;18.694;2023-03-19T15:52:56;30.90;;;20.50;;
25824;SDS011;13658;44.534;18.694;2023-03-19T15:55:26;54.15;;;34.75;;
25824;SDS011;13658;44.534;18.694;2023-03-19T15:57:53;36.75;;;23.88;;
25824;SDS011;13658;44.534;18.694;2023-03-19T16:00:21;32.33;;;20.33;;
25824;SDS011;13658;44.534;18.694;2023-03-19T16:02:49;27.15;;;18.65;;
25824;SDS011;13658;44.534;18.694;2023-03-19T16:05:35;31.35;;;19.55;;
25824;SDS011;13658;44.534;18.694;2023-03-19T16:08:08;22.35;;;14.95;;
25824;SDS011;13658;44.534;18.694;2023-03-19T16:10:42;23.23;;;15.30;;
25824;SDS011;13658;44.534;18.694;2023-03-19T16:13:29;28.88;;;16.75;;
25824;SDS011;13658;44.534;18.694;2023-03-19T16:16:05;18.40;;;13.48;;
25824;SDS011;13658;44.534;18.694;2023-03-19T16:18:54;24.52;;;17.80;;
25824;SDS011;13658;44.534;18.694;2023-03-19T16:21:37;25.63;;;16.27;;
25824;SDS011;13658;44.534;18.694;2023-03-19T16:26:48;28.73;;;17.67;;
25824;SDS011;13658;44.534;18.694;2023-03-19T16:29:26;25.02;;;16.83;;
25824;SDS011;13658;44.534;18.694;2023-03-19T16:32:14;34.65;;;20.00;;
25824;SDS011;13658;44.534;18.694;2023-03-19T16:34:45;29.45;;;18.70;;
25824;SDS011;13658;44.534;18.694;2023-03-19T16:47:40;30.08;;;18.50;;
25824;SDS011;13658;44.534;18.694;2023-03-19T16:50:07;26.48;;;17.67;;
25824;SDS011;13658;44.534;18.694;2023-03-19T16:52:34;56.45;;;34.45;;
25824;SDS011;13658;44.534;18.694;2023-03-19T16:55:03;36.70;;;23.00;;
25824;SDS011;13658;44.534;18.694;2023-03-19T16:57:35;33.88;;;22.52;;
25824;SDS011;13658;44.534;18.694;2023-03-19T17:00:01;33.92;;;21.02;;
25824;SDS011;13658;44.534;18.694;2023-03-19T17:02:29;35.90;;;21.75;;
25824;SDS011;13658;44.534;18.694;2023-03-19T17:04:55;34.45;;;22.70;;
25824;SDS011;13658;44.534;18.694;2023-03-19T17:07:21;43.60;;;25.98;;
25824;SDS011;13658;44.534;18.694;2023-03-19T17:09:47;56.20;;;35.38;;
25824;SDS011;13658;44.534;18.694;2023-03-19T17:12:13;115.68;;;66.78;;
25824;SDS011;13658;44.534;18.694;2023-03-19T17:14:41;96.75;;;52.78;;
25824;SDS011;13658;44.534;18.694;2023-03-19T17:17:11;124.50;;;67.88;;
25824;SDS011;13658;44.534;18.694;2023-03-19T17:19:42;189.65;;;102.38;;
25824;SDS011;13658;44.534;18.694;2023-03-19T17:22:10;228.63;;;124.07;;
25824;SDS011;13658;44.534;18.694;2023-03-19T17:24:38;211.48;;;114.28;;